createdAt,value
2019-02-28T00:00:58.763Z,61.75
2019-02-28T00:02:02.340Z,61.47
2019-02-28T00:03:06.105Z,61.35
2019-02-28T00:04:09.688Z,61.34
2019-02-28T00:05:13.344Z,61.35
2019-02-28T00:06:16.918Z,61.35
2019-02-28T00:07:20.500Z,61.34
2019-02-28T00:08:24.089Z,61.19
2019-02-28T00:09:27.611Z,61.33
2019-02-28T00:10:31.472Z,61.37
2019-02-28T00:11:36.121Z,61.34
2019-02-28T00:12:40.261Z,61.32
2019-02-28T00:13:43.762Z,61.31
2019-02-28T00:14:47.320Z,61.29
2019-02-28T00:15:50.968Z,61.27
2019-02-28T00:16:54.465Z,61.41
2019-02-28T00:17:57.974Z,61.56
2019-02-28T00:19:01.479Z,61.92
2019-02-28T00:20:07.467Z,61.92
2019-02-28T00:21:11.082Z,61.80
2019-02-28T00:22:15.363Z,61.78
2019-02-28T00:23:21.701Z,61.62
2019-02-28T00:24:27.228Z,61.65
2019-02-28T00:25:29.531Z,61.68
2019-02-28T00:26:33.049Z,61.62
2019-02-28T00:27:36.551Z,61.73
2019-02-28T00:28:40.085Z,61.67
2019-02-28T00:29:43.601Z,61.66
2019-02-28T00:30:47.126Z,61.61
2019-02-28T00:31:50.803Z,61.50
2019-02-28T00:32:56.314Z,61.62
2019-02-28T00:34:04.585Z,61.68
2019-02-28T00:35:06.343Z,61.72
2019-02-28T00:36:09.950Z,61.53
2019-02-28T00:37:13.468Z,61.80
2019-02-28T00:38:17.059Z,62.13
2019-02-28T00:39:20.614Z,62.04
2019-02-28T00:40:24.117Z,61.74
2019-02-28T00:41:27.648Z,61.52
2019-02-28T00:42:31.201Z,61.83
2019-02-28T00:43:34.724Z,61.84
2019-02-28T00:44:38.220Z,61.93
2019-02-28T00:45:41.824Z,61.82
2019-02-28T00:46:45.472Z,61.78
2019-02-28T00:47:49.016Z,61.91
2019-02-28T00:48:53.942Z,61.63
2019-02-28T00:49:57.650Z,61.63
2019-02-28T00:51:01.161Z,61.82
2019-02-28T00:52:04.703Z,62.13
2019-02-28T00:53:08.242Z,62.13
2019-02-28T00:54:11.770Z,61.91
2019-02-28T00:55:15.647Z,62.12
2019-02-28T00:56:19.238Z,62.25
2019-02-28T00:57:23.682Z,62.22
2019-02-28T00:58:29.017Z,62.15
2019-02-28T00:59:33.104Z,62.66
2019-02-28T01:00:38.045Z,62.67
2019-02-28T01:01:43.147Z,62.55
2019-02-28T01:02:51.868Z,62.52
2019-02-28T01:03:52.447Z,62.48
2019-02-28T01:04:55.946Z,62.36
2019-02-28T01:05:59.455Z,62.22
2019-02-28T01:07:03.018Z,62.19
2019-02-28T01:08:06.596Z,62.13
2019-02-28T01:09:10.283Z,61.94
2019-02-28T01:10:14.250Z,61.94
2019-02-28T01:11:17.777Z,61.93
2019-02-28T01:12:21.306Z,61.95
2019-02-28T01:13:27.381Z,62.08
2019-02-28T01:14:32.390Z,61.91
2019-02-28T01:15:35.420Z,61.85
2019-02-28T01:16:38.911Z,61.77
2019-02-28T01:17:42.575Z,61.75
2019-02-28T01:18:46.144Z,61.81
2019-02-28T01:19:49.728Z,61.75
2019-02-28T01:20:53.320Z,61.70
2019-02-28T01:21:56.878Z,61.77
2019-02-28T01:23:00.504Z,61.77
2019-02-28T01:24:04.265Z,61.74
2019-02-28T01:25:13.899Z,61.70
2019-02-28T01:26:17.563Z,61.68
2019-02-28T01:27:21.827Z,61.71
2019-02-28T01:28:26.953Z,61.75
2019-02-28T01:29:33.001Z,61.78
2019-02-28T01:30:37.062Z,61.79
2019-02-28T01:31:42.527Z,61.64
2019-02-28T01:32:49.761Z,61.47
2019-02-28T01:33:52.070Z,61.47
2019-02-28T01:34:55.613Z,61.57
2019-02-28T01:35:59.203Z,61.48
2019-02-28T01:37:02.720Z,61.67
2019-02-28T01:38:06.215Z,61.69
2019-02-28T01:39:09.811Z,61.58
2019-02-28T01:40:16.389Z,61.51
2019-02-28T01:41:19.919Z,61.55
2019-02-28T01:42:23.527Z,61.52
2019-02-28T01:43:28.933Z,61.53
2019-02-28T01:44:35.575Z,61.60
2019-02-28T01:45:37.746Z,61.60
2019-02-28T01:46:41.249Z,61.52
2019-02-28T01:47:44.764Z,61.68
2019-02-28T01:48:48.355Z,62.06
2019-02-28T01:49:51.939Z,62.01
2019-02-28T01:50:55.480Z,61.90
2019-02-28T01:51:59.073Z,61.82
2019-02-28T01:53:02.670Z,61.72
2019-02-28T01:54:06.217Z,61.70
2019-02-28T01:55:10.757Z,61.72
2019-02-28T01:56:14.284Z,62.14
2019-02-28T01:57:17.838Z,62.25
2019-02-28T01:58:21.352Z,62.29
2019-02-28T01:59:24.886Z,62.13
2019-02-28T02:00:28.439Z,61.95
2019-02-28T02:01:32.058Z,61.79
2019-02-28T02:02:38.034Z,61.67
2019-02-28T02:03:41.728Z,61.57
2019-02-28T02:04:45.786Z,61.60
2019-02-28T02:05:51.670Z,61.71
2019-02-28T02:06:59.617Z,62.25
2019-02-28T02:08:00.770Z,62.23
2019-02-28T02:09:08.156Z,62.26
2019-02-28T02:10:21.232Z,62.23
2019-02-28T02:11:26.663Z,62.26
2019-02-28T02:12:31.504Z,62.35
2019-02-28T02:13:36.660Z,62.52
2019-02-28T02:14:39.314Z,62.42
2019-02-28T02:15:42.893Z,62.39
2019-02-28T02:16:46.427Z,62.24
2019-02-28T02:17:50.055Z,62.06
2019-02-28T02:18:53.569Z,62.08
2019-02-28T02:19:57.122Z,62.40
2019-02-28T02:21:00.911Z,62.59
2019-02-28T02:22:09.122Z,62.69
2019-02-28T02:23:09.922Z,62.64
2019-02-28T02:24:13.448Z,62.64
2019-02-28T02:25:17.051Z,62.68
2019-02-28T02:26:20.561Z,62.66
2019-02-28T02:27:24.148Z,62.69
2019-02-28T02:28:27.885Z,62.69
2019-02-28T02:29:32.444Z,62.77
2019-02-28T02:30:36.670Z,62.88
2019-02-28T02:31:40.318Z,62.72
2019-02-28T02:32:43.846Z,62.74
2019-02-28T02:33:52.346Z,62.88
2019-02-28T02:34:52.569Z,62.78
2019-02-28T02:35:56.085Z,62.99
2019-02-28T02:36:59.602Z,62.96
2019-02-28T02:38:04.591Z,62.72
2019-02-28T02:39:08.375Z,62.55
2019-02-28T02:40:14.299Z,62.47
2019-02-28T02:41:20.880Z,62.40
2019-02-28T02:42:24.494Z,62.47
2019-02-28T02:43:28.000Z,62.45
2019-02-28T02:44:32.073Z,62.28
2019-02-28T02:45:41.819Z,62.16
2019-02-28T02:46:40.908Z,62.00
2019-02-28T02:47:44.778Z,61.97
2019-02-28T02:48:48.294Z,62.03
2019-02-28T02:49:56.551Z,61.98
2019-02-28T02:50:57.164Z,61.94
2019-02-28T02:52:00.658Z,62.02
2019-02-28T02:53:05.590Z,62.24
2019-02-28T02:54:09.463Z,62.36
2019-02-28T02:55:13.703Z,62.35
2019-02-28T02:56:17.276Z,62.36
2019-02-28T02:57:20.780Z,62.31
2019-02-28T02:58:27.832Z,62.22
2019-02-28T02:59:37.550Z,62.21
2019-02-28T03:00:34.907Z,62.27
2019-02-28T03:01:38.427Z,62.45
2019-02-28T03:02:41.994Z,62.46
2019-02-28T03:03:45.515Z,62.56
2019-02-28T03:04:49.049Z,62.57
2019-02-28T03:05:52.545Z,62.55
2019-02-28T03:06:56.130Z,62.49
2019-02-28T03:08:00.960Z,62.42
2019-02-28T03:09:09.985Z,62.40
2019-02-28T03:10:18.044Z,62.33
2019-02-28T03:11:24.750Z,62.37
2019-02-28T03:12:31.162Z,62.37
2019-02-28T03:13:32.618Z,62.33
2019-02-28T03:14:36.137Z,62.27
2019-02-28T03:15:39.639Z,62.26
2019-02-28T03:16:43.145Z,62.24
2019-02-28T03:17:48.490Z,62.25
2019-02-28T03:18:57.001Z,62.24
2019-02-28T03:19:57.169Z,62.25
2019-02-28T03:21:00.981Z,62.24
2019-02-28T03:22:04.585Z,62.22
2019-02-28T03:23:08.199Z,62.16
2019-02-28T03:24:15.166Z,62.10
2019-02-28T03:25:17.592Z,62.08
2019-02-28T03:26:21.076Z,62.02
2019-02-28T03:27:24.671Z,62.01
2019-02-28T03:28:32.160Z,62.03
2019-02-28T03:29:33.427Z,62.06
2019-02-28T03:30:36.968Z,62.13
2019-02-28T03:31:40.459Z,62.13
2019-02-28T03:32:43.963Z,62.13
2019-02-28T03:33:47.485Z,62.11
2019-02-28T03:34:58.346Z,62.11
2019-02-28T03:35:56.225Z,62.09
2019-02-28T03:36:59.708Z,62.03
2019-02-28T03:38:10.562Z,61.98
2019-02-28T03:39:08.487Z,61.96
2019-02-28T03:40:13.326Z,61.97
2019-02-28T03:41:18.183Z,61.98
2019-02-28T03:42:28.536Z,61.97
2019-02-28T03:43:27.236Z,61.94
2019-02-28T03:44:30.762Z,61.92
2019-02-28T03:45:35.387Z,61.96
2019-02-28T03:46:39.037Z,62.26
2019-02-28T03:47:42.637Z,62.41
2019-02-28T03:48:46.122Z,62.62
2019-02-28T03:49:50.282Z,62.72
2019-02-28T03:50:55.323Z,62.94
2019-02-28T03:52:05.548Z,63.42
2019-02-28T03:53:04.627Z,63.19
2019-02-28T03:54:08.139Z,63.47
2019-02-28T03:55:13.099Z,63.47
2019-02-28T03:56:16.852Z,63.32
2019-02-28T03:57:27.970Z,63.22
2019-02-28T03:58:25.709Z,63.44
2019-02-28T03:59:29.372Z,63.36
2019-02-28T04:00:34.198Z,63.32
2019-02-28T04:01:44.547Z,63.32
2019-02-28T04:02:43.283Z,63.29
2019-02-28T04:03:47.114Z,63.29
2019-02-28T04:04:50.776Z,63.10
2019-02-28T04:05:54.371Z,63.03
2019-02-28T04:06:57.996Z,63.08
2019-02-28T04:08:01.526Z,62.97
2019-02-28T04:09:08.431Z,62.76
2019-02-28T04:10:16.740Z,62.59
2019-02-28T04:11:19.896Z,62.76
2019-02-28T04:12:23.417Z,62.80
2019-02-28T04:13:26.913Z,62.76
2019-02-28T04:14:33.138Z,62.63
2019-02-28T04:15:35.894Z,62.51
2019-02-28T04:16:39.474Z,62.40
2019-02-28T04:17:43.064Z,62.57
2019-02-28T04:18:46.901Z,62.49
2019-02-28T04:19:58.514Z,62.49
2019-02-28T04:20:55.881Z,62.43
2019-02-28T04:21:59.465Z,62.40
2019-02-28T04:23:03.035Z,62.34
2019-02-28T04:24:12.711Z,62.20
2019-02-28T04:25:12.349Z,62.08
2019-02-28T04:26:15.903Z,61.99
2019-02-28T04:27:19.552Z,61.89
2019-02-28T04:28:23.239Z,61.78
2019-02-28T04:29:31.170Z,61.76
2019-02-28T04:30:34.016Z,61.73
2019-02-28T04:31:37.742Z,61.62
2019-02-28T04:32:41.503Z,61.54
2019-02-28T04:33:44.981Z,61.48
2019-02-28T04:34:49.105Z,61.29
2019-02-28T04:35:56.820Z,61.30
2019-02-28T04:36:58.691Z,61.35
2019-02-28T04:38:02.200Z,61.35
2019-02-28T04:39:06.689Z,61.40
2019-02-28T04:40:11.850Z,61.31
2019-02-28T04:41:15.416Z,61.23
2019-02-28T04:42:18.920Z,61.31
2019-02-28T04:43:22.429Z,61.29
2019-02-28T04:44:25.945Z,61.19
2019-02-28T04:45:29.458Z,61.21
2019-02-28T04:46:33.063Z,61.22
2019-02-28T04:47:37.301Z,61.05
2019-02-28T04:48:41.888Z,61.00
2019-02-28T04:49:45.535Z,61.10
2019-02-28T04:50:49.082Z,61.03
2019-02-28T04:51:52.613Z,61.10
2019-02-28T04:52:56.120Z,61.06
2019-02-28T04:53:59.648Z,61.80
2019-02-28T04:55:03.939Z,61.80
2019-02-28T04:56:11.180Z,60.81
2019-02-28T04:57:12.793Z,60.81
2019-02-28T04:58:16.277Z,61.72
2019-02-28T04:59:19.805Z,61.72
2019-02-28T05:00:23.379Z,61.26
2019-02-28T05:01:26.871Z,61.36
2019-02-28T05:02:30.450Z,61.33
2019-02-28T05:03:33.952Z,61.39
2019-02-28T05:04:37.469Z,61.41
2019-02-28T05:05:40.975Z,61.43
2019-02-28T05:06:44.452Z,61.49
2019-02-28T05:07:48.017Z,61.44
2019-02-28T05:08:51.544Z,61.36
2019-02-28T05:09:55.044Z,61.36
2019-02-28T05:10:58.544Z,61.46
2019-02-28T05:12:02.466Z,61.68
2019-02-28T05:13:07.295Z,61.68
2019-02-28T05:14:10.803Z,61.61
2019-02-28T05:15:15.035Z,61.61
2019-02-28T05:16:18.609Z,61.56
2019-02-28T05:17:22.909Z,61.56
2019-02-28T05:18:27.636Z,61.58
2019-02-28T05:19:32.325Z,61.54
2019-02-28T05:20:36.953Z,61.54
2019-02-28T05:21:40.521Z,61.47
2019-02-28T05:22:44.020Z,61.45
2019-02-28T05:23:47.538Z,61.47
2019-02-28T05:24:51.039Z,61.44
2019-02-28T05:25:54.551Z,61.43
2019-02-28T05:27:00.131Z,61.41
2019-02-28T05:28:06.680Z,61.51
2019-02-28T05:29:11.866Z,61.52
2019-02-28T05:30:19.262Z,61.52
2019-02-28T05:31:24.207Z,61.50
2019-02-28T05:32:27.831Z,61.52
2019-02-28T05:33:31.413Z,61.44
2019-02-28T05:34:34.946Z,61.51
2019-02-28T05:35:38.593Z,61.42
2019-02-28T05:36:42.095Z,61.38
2019-02-28T05:37:48.039Z,61.42
2019-02-28T05:38:53.603Z,61.42
2019-02-28T05:39:56.136Z,61.40
2019-02-28T05:40:59.707Z,61.38
2019-02-28T05:42:03.231Z,61.41
2019-02-28T05:43:06.754Z,61.34
2019-02-28T05:44:10.246Z,61.40
2019-02-28T05:45:14.782Z,61.30
2019-02-28T05:46:20.372Z,61.30
2019-02-28T05:47:26.001Z,61.46
2019-02-28T05:48:29.639Z,61.45
2019-02-28T05:49:33.133Z,61.45
2019-02-28T05:50:36.689Z,62.20
2019-02-28T05:51:40.207Z,62.20
2019-02-28T05:52:43.851Z,61.51
2019-02-28T05:53:47.825Z,61.66
2019-02-28T05:54:51.463Z,61.58
2019-02-28T05:55:58.835Z,61.56
2019-02-28T05:57:00.415Z,61.44
2019-02-28T05:58:04.114Z,61.66
2019-02-28T05:59:07.612Z,61.71
2019-02-28T06:00:16.974Z,61.57
2019-02-28T06:01:20.630Z,61.55
2019-02-28T06:02:26.451Z,61.59
2019-02-28T06:03:30.478Z,61.60
2019-02-28T06:04:34.165Z,61.64
2019-02-28T06:05:39.244Z,61.71
2019-02-28T06:06:42.833Z,61.61
2019-02-28T06:07:46.362Z,61.60
2019-02-28T06:08:49.858Z,61.63
2019-02-28T06:09:53.465Z,61.52
2019-02-28T06:11:00.685Z,61.69
2019-02-28T06:12:02.349Z,61.65
2019-02-28T06:13:05.911Z,61.61
2019-02-28T06:14:09.519Z,61.59
2019-02-28T06:15:15.363Z,61.64
2019-02-28T06:16:18.935Z,61.66
2019-02-28T06:17:22.440Z,61.66
2019-02-28T06:18:27.013Z,61.60
2019-02-28T06:19:31.289Z,61.60
2019-02-28T06:20:34.949Z,61.53
2019-02-28T06:21:38.470Z,61.50
2019-02-28T06:22:42.123Z,61.50
2019-02-28T06:23:45.650Z,61.55
2019-02-28T06:24:49.184Z,62.05
2019-02-28T06:25:55.761Z,62.05
2019-02-28T06:26:58.027Z,61.60
2019-02-28T06:28:01.607Z,61.61
2019-02-28T06:29:05.888Z,61.69
2019-02-28T06:30:12.269Z,61.70
2019-02-28T06:31:15.825Z,61.72
2019-02-28T06:32:23.303Z,61.66
2019-02-28T06:33:24.576Z,61.73
2019-02-28T06:34:28.144Z,61.66
2019-02-28T06:35:31.641Z,61.68
2019-02-28T06:36:35.199Z,61.79
2019-02-28T06:37:39.222Z,62.26
2019-02-28T06:38:42.829Z,62.26
2019-02-28T06:39:46.352Z,61.71
2019-02-28T06:40:49.828Z,61.41
2019-02-28T06:41:53.378Z,61.41
2019-02-28T06:42:56.947Z,61.74
2019-02-28T06:44:00.466Z,61.77
2019-02-28T06:45:05.040Z,61.88
2019-02-28T06:46:09.301Z,61.85
2019-02-28T06:47:14.190Z,61.89
2019-02-28T06:48:20.363Z,61.91
2019-02-28T06:49:23.485Z,62.09
2019-02-28T06:50:27.039Z,61.96
2019-02-28T06:51:30.577Z,61.88
2019-02-28T06:52:34.181Z,61.86
2019-02-28T06:53:38.792Z,61.95
2019-02-28T06:54:42.292Z,61.85
2019-02-28T06:55:48.184Z,61.88
2019-02-28T06:56:54.042Z,61.86
2019-02-28T06:57:58.899Z,61.90
2019-02-28T06:59:04.941Z,61.79
2019-02-28T07:00:13.426Z,61.84
2019-02-28T07:01:22.648Z,61.89
2019-02-28T07:02:24.583Z,61.88
2019-02-28T07:03:28.096Z,61.87
2019-02-28T07:04:31.594Z,62.51
2019-02-28T07:05:35.237Z,62.22
2019-02-28T07:06:38.781Z,62.22
2019-02-28T07:07:45.618Z,61.80
2019-02-28T07:08:47.649Z,61.87
2019-02-28T07:09:51.138Z,61.51
2019-02-28T07:10:54.657Z,58.79
2019-02-28T07:11:58.157Z,58.79
2019-02-28T07:13:04.475Z,59.02
2019-02-28T07:14:06.949Z,59.02
2019-02-28T07:15:11.135Z,57.90
2019-02-28T07:16:14.670Z,57.39
2019-02-28T07:17:18.222Z,56.71
2019-02-28T07:18:21.850Z,56.19
2019-02-28T07:19:26.283Z,55.99
2019-02-28T07:20:30.669Z,54.35
2019-02-28T07:21:34.653Z,54.76
2019-02-28T07:22:40.038Z,54.31
2019-02-28T07:23:43.573Z,53.35
2019-02-28T07:24:47.297Z,52.97
2019-02-28T07:25:52.424Z,52.78
2019-02-28T07:26:55.973Z,51.86
2019-02-28T07:28:01.567Z,51.38
2019-02-28T07:29:04.814Z,50.82
2019-02-28T07:30:17.283Z,50.00
2019-02-28T07:31:21.706Z,48.65
2019-02-28T07:32:23.973Z,47.90
2019-02-28T07:33:27.576Z,48.06
2019-02-28T07:34:31.059Z,47.84
2019-02-28T07:35:36.834Z,47.68
2019-02-28T07:36:41.492Z,47.32
2019-02-28T07:37:45.164Z,47.20
2019-02-28T07:38:48.680Z,47.53
2019-02-28T07:39:52.242Z,47.67
2019-02-28T07:40:55.868Z,48.05
2019-02-28T07:42:02.182Z,47.88
2019-02-28T07:43:05.870Z,47.67
2019-02-28T07:44:09.557Z,47.88
2019-02-28T07:45:14.217Z,47.66
2019-02-28T07:46:17.773Z,47.83
2019-02-28T07:47:21.310Z,47.95
2019-02-28T07:48:29.077Z,48.13
2019-02-28T07:49:35.849Z,48.28
2019-02-28T07:50:35.512Z,48.12
2019-02-28T07:51:38.982Z,48.10
2019-02-28T07:52:42.747Z,47.58
2019-02-28T07:53:46.243Z,48.00
2019-02-28T07:54:51.801Z,48.40
2019-02-28T07:55:55.087Z,48.70
2019-02-28T07:56:58.658Z,47.92
2019-02-28T07:58:02.238Z,47.51
2019-02-28T07:59:06.389Z,47.52
2019-02-28T08:00:21.129Z,47.41
2019-02-28T08:01:27.732Z,47.53
2019-02-28T08:02:29.991Z,47.52
2019-02-28T08:03:33.573Z,47.38
2019-02-28T08:04:37.196Z,47.27
2019-02-28T08:05:40.681Z,47.53
2019-02-28T08:06:44.190Z,47.51
2019-02-28T08:07:52.081Z,47.59
2019-02-28T08:08:53.069Z,47.50
2019-02-28T08:09:58.080Z,47.54
2019-02-28T08:11:01.891Z,47.50
2019-02-28T08:12:05.570Z,47.48
2019-02-28T08:13:09.176Z,47.82
2019-02-28T08:14:12.997Z,48.69
2019-02-28T08:15:22.437Z,49.14
2019-02-28T08:16:24.325Z,49.04
2019-02-28T08:17:27.803Z,49.01
2019-02-28T08:18:31.700Z,48.92
2019-02-28T08:19:35.174Z,48.82
2019-02-28T08:20:38.774Z,48.78
2019-02-28T08:21:47.006Z,48.82
2019-02-28T08:22:47.750Z,48.95
2019-02-28T08:23:51.271Z,49.35
2019-02-28T08:24:54.858Z,49.26
2019-02-28T08:25:58.428Z,49.13
2019-02-28T08:27:01.954Z,49.13
2019-02-28T08:28:05.454Z,49.19
2019-02-28T08:29:11.620Z,49.26
2019-02-28T08:30:20.603Z,49.37
2019-02-28T08:31:24.238Z,49.47
2019-02-28T08:32:27.925Z,49.47
2019-02-28T08:33:31.506Z,49.42
2019-02-28T08:34:35.013Z,49.26
2019-02-28T08:35:38.688Z,49.17
2019-02-28T08:36:43.833Z,49.14
2019-02-28T08:37:47.583Z,49.16
2019-02-28T08:38:51.108Z,49.24
2019-02-28T08:39:54.836Z,49.30
2019-02-28T08:40:58.411Z,49.31
2019-02-28T08:42:04.364Z,49.32
2019-02-28T08:43:07.192Z,49.32
2019-02-28T08:44:10.845Z,49.37
2019-02-28T08:45:15.812Z,49.36
2019-02-28T08:46:19.390Z,49.91
2019-02-28T08:47:22.929Z,49.82
2019-02-28T08:48:31.238Z,49.78
2019-02-28T08:49:31.842Z,49.87
2019-02-28T08:50:35.362Z,50.07
2019-02-28T08:51:39.059Z,50.11
2019-02-28T08:52:42.719Z,50.13
2019-02-28T08:53:50.955Z,50.18
2019-02-28T08:54:51.614Z,50.14
2019-02-28T08:55:55.303Z,50.08
2019-02-28T08:56:59.003Z,50.43
2019-02-28T08:58:06.139Z,50.57
2019-02-28T08:59:11.829Z,50.48
2019-02-28T09:00:16.108Z,50.48
2019-02-28T09:01:19.618Z,50.53
2019-02-28T09:02:23.141Z,50.53
2019-02-28T09:03:27.228Z,50.56
2019-02-28T09:04:40.756Z,50.50
2019-02-28T09:05:36.988Z,50.37
2019-02-28T09:06:40.922Z,50.32
2019-02-28T09:07:50.740Z,50.35
2019-02-28T09:08:51.099Z,50.34
2019-02-28T09:09:54.656Z,50.37
2019-02-28T09:10:58.137Z,50.46
2019-02-28T09:12:01.699Z,50.44
2019-02-28T09:13:08.689Z,50.43
2019-02-28T09:14:10.659Z,50.48
2019-02-28T09:15:16.201Z,50.52
2019-02-28T09:16:19.763Z,50.55
2019-02-28T09:17:23.285Z,50.59
2019-02-28T09:18:26.874Z,50.63
2019-02-28T09:19:32.498Z,50.64
2019-02-28T09:20:35.724Z,50.67
2019-02-28T09:21:41.168Z,50.69
2019-02-28T09:22:44.588Z,50.81
2019-02-28T09:23:48.311Z,50.89
2019-02-28T09:24:51.980Z,50.89
2019-02-28T09:25:56.745Z,50.89
2019-02-28T09:27:01.380Z,50.98
2019-02-28T09:28:06.132Z,51.03
2019-02-28T09:29:09.652Z,51.02
2019-02-28T09:30:26.458Z,51.05
2019-02-28T09:31:30.151Z,51.09
2019-02-28T09:32:33.624Z,51.17
2019-02-28T09:33:37.361Z,51.26
2019-02-28T09:34:43.285Z,51.38
2019-02-28T09:35:46.996Z,51.73
2019-02-28T09:36:55.309Z,52.08
2019-02-28T09:37:55.767Z,52.35
2019-02-28T09:38:59.721Z,52.47
2019-02-28T09:40:03.294Z,52.56
2019-02-28T09:41:06.946Z,52.66
2019-02-28T09:42:14.857Z,52.70
2019-02-28T09:43:15.659Z,52.73
2019-02-28T09:44:19.274Z,52.74
2019-02-28T09:45:24.679Z,52.78
2019-02-28T09:46:28.191Z,52.83
2019-02-28T09:47:31.690Z,52.89
2019-02-28T09:48:37.101Z,52.94
2019-02-28T09:49:40.663Z,52.99
2019-02-28T09:50:44.371Z,53.02
2019-02-28T09:51:47.852Z,53.05
2019-02-28T09:52:51.499Z,53.10
2019-02-28T09:53:55.125Z,53.13
2019-02-28T09:54:59.241Z,53.17
2019-02-28T09:56:08.877Z,53.20
2019-02-28T09:57:08.736Z,53.22
2019-02-28T09:58:12.254Z,53.22
2019-02-28T09:59:15.856Z,53.24
2019-02-28T10:00:23.194Z,53.25
2019-02-28T10:01:26.907Z,53.28
2019-02-28T10:02:30.689Z,53.31
2019-02-28T10:03:34.736Z,53.38
2019-02-28T10:04:38.400Z,53.33
2019-02-28T10:05:43.345Z,53.35
2019-02-28T10:06:48.570Z,53.48
2019-02-28T10:07:52.335Z,53.58
2019-02-28T10:08:55.889Z,53.71
2019-02-28T10:09:59.505Z,53.95
2019-02-28T10:11:03.207Z,53.99
2019-02-28T10:12:07.814Z,54.10
2019-02-28T10:14:37.562Z,54.19
2019-02-28T10:15:41.830Z,54.19
2019-02-28T10:16:45.958Z,54.14
2019-02-28T10:17:50.025Z,54.08
2019-02-28T10:18:53.869Z,53.96
2019-02-28T10:19:57.450Z,53.83
2019-02-28T10:21:01.908Z,53.74
2019-02-28T10:22:06.627Z,53.61
2019-02-28T10:23:10.103Z,53.51
2019-02-28T10:24:13.897Z,53.39
2019-02-28T10:25:18.355Z,53.29
2019-02-28T10:26:22.071Z,53.13
2019-02-28T10:27:26.889Z,52.93
2019-02-28T10:28:32.960Z,52.79
2019-02-28T10:29:41.962Z,52.61
2019-02-28T10:32:27.541Z,52.22
2019-02-28T10:33:31.032Z,51.93
2019-02-28T10:34:35.444Z,51.71
2019-02-28T10:35:40.066Z,51.59
2019-02-28T10:36:47.782Z,51.44
2019-02-28T10:39:18.255Z,51.12
2019-02-28T10:40:29.023Z,51.08
2019-02-28T10:41:35.620Z,51.22
2019-02-28T10:42:40.235Z,51.22
2019-02-28T10:43:49.885Z,50.81
2019-02-28T10:45:03.623Z,50.69
2019-02-28T10:46:07.281Z,50.64
2019-02-28T10:47:10.806Z,50.62
2019-02-28T10:48:16.366Z,50.53
2019-02-28T10:49:21.121Z,50.47
2019-02-28T10:50:33.263Z,50.44
2019-02-28T10:51:35.573Z,50.40
2019-02-28T10:52:42.472Z,50.40
2019-02-28T10:53:46.008Z,50.40
2019-02-28T10:54:49.681Z,50.37
2019-02-28T10:55:57.565Z,50.40
2019-02-28T10:56:59.616Z,50.38
2019-02-28T10:58:03.549Z,50.41
2019-02-28T10:59:07.233Z,50.47
2019-02-28T11:00:23.925Z,50.48
2019-02-28T11:01:27.623Z,50.44
2019-02-28T11:02:31.293Z,50.51
2019-02-28T11:03:34.894Z,50.50
2019-02-28T11:04:42.809Z,50.12
2019-02-28T11:05:44.995Z,50.67
2019-02-28T11:06:48.623Z,50.09
2019-02-28T11:07:52.495Z,50.09
2019-02-28T11:08:56.134Z,50.59
2019-02-28T11:10:01.842Z,50.61
2019-02-28T11:11:07.428Z,50.58
2019-02-28T11:12:10.543Z,51.13
2019-02-28T11:13:16.955Z,51.13
2019-02-28T11:14:20.963Z,50.47
2019-02-28T11:15:25.654Z,50.37
2019-02-28T11:16:29.318Z,50.28
2019-02-28T11:17:34.169Z,50.31
2019-02-28T11:18:37.807Z,50.27
2019-02-28T11:19:41.413Z,50.21
2019-02-28T11:20:45.235Z,50.19
2019-02-28T11:21:48.798Z,50.50
2019-02-28T11:22:52.668Z,50.50
2019-02-28T11:23:56.194Z,50.34
2019-02-28T11:25:00.856Z,50.34
2019-02-28T11:26:06.489Z,50.14
2019-02-28T11:27:10.612Z,50.15
2019-02-28T11:28:14.730Z,50.15
2019-02-28T11:29:18.273Z,50.15
2019-02-28T11:30:29.967Z,50.20
2019-02-28T11:31:33.539Z,50.19
2019-02-28T11:32:37.098Z,50.22
2019-02-28T11:33:40.836Z,50.16
2019-02-28T11:34:45.831Z,50.51
2019-02-28T11:35:49.715Z,50.51
2019-02-28T11:36:53.237Z,49.88
2019-02-28T11:37:56.958Z,49.52
2019-02-28T11:39:00.624Z,49.41
2019-02-28T11:40:08.508Z,49.20
2019-02-28T11:41:11.114Z,49.20
2019-02-28T11:42:14.677Z,49.44
2019-02-28T11:43:18.566Z,49.52
2019-02-28T11:44:22.164Z,50.20
2019-02-28T11:45:34.571Z,50.20
2019-02-28T11:46:38.229Z,49.60
2019-02-28T11:47:42.648Z,49.64
2019-02-28T11:48:46.859Z,49.50
2019-02-28T11:49:50.513Z,49.15
2019-02-28T11:50:54.171Z,49.15
2019-02-28T11:51:57.812Z,49.66
2019-02-28T11:53:04.937Z,50.03
2019-02-28T11:54:06.749Z,50.03
2019-02-28T11:55:12.443Z,49.96
2019-02-28T11:56:16.085Z,49.96
2019-02-28T11:57:20.696Z,49.54
2019-02-28T11:58:24.210Z,49.54
2019-02-28T11:59:27.848Z,50.01
2019-02-28T12:00:35.921Z,50.12
2019-02-28T12:01:39.196Z,50.17
2019-02-28T12:02:42.794Z,50.24
2019-02-28T12:03:46.379Z,50.37
2019-02-28T12:04:49.897Z,50.37
2019-02-28T12:05:53.686Z,50.44
2019-02-28T12:07:00.742Z,50.95
2019-02-28T12:08:02.651Z,50.47
2019-02-28T12:09:07.202Z,50.02
2019-02-28T12:10:11.149Z,50.02
2019-02-28T12:11:14.824Z,51.19
2019-02-28T12:12:18.310Z,51.19
2019-02-28T12:13:21.893Z,50.82
2019-02-28T12:14:26.410Z,50.89
2019-02-28T12:15:32.883Z,50.73
2019-02-28T12:16:36.455Z,50.73
2019-02-28T12:17:40.089Z,51.02
2019-02-28T12:18:43.673Z,51.07
2019-02-28T12:19:47.559Z,51.10
2019-02-28T12:20:52.616Z,51.16
2019-02-28T12:21:56.202Z,51.22
2019-02-28T12:22:59.768Z,51.08
2019-02-28T12:24:03.314Z,51.08
2019-02-28T12:25:10.049Z,51.28
2019-02-28T12:26:14.403Z,50.74
2019-02-28T12:27:18.831Z,50.74
2019-02-28T12:28:22.476Z,51.08
2019-02-28T12:29:26.072Z,51.52
2019-02-28T12:30:34.353Z,51.52
2019-02-28T12:31:37.937Z,51.54
2019-02-28T12:32:43.510Z,51.60
2019-02-28T12:33:47.027Z,51.66
2019-02-28T12:34:50.568Z,51.71
2019-02-28T12:35:54.774Z,51.73
2019-02-28T12:36:59.854Z,51.73
2019-02-28T12:38:04.394Z,51.78
2019-02-28T12:39:08.372Z,52.42
2019-02-28T12:40:17.326Z,52.42
2019-02-28T12:41:21.735Z,51.85
2019-02-28T12:42:26.107Z,51.92
2019-02-28T12:43:29.744Z,51.92
2019-02-28T12:44:33.257Z,51.94
2019-02-28T12:45:44.099Z,51.97
2019-02-28T12:46:47.641Z,52.02
2019-02-28T12:47:51.277Z,52.01
2019-02-28T12:48:54.933Z,51.70
2019-02-28T12:49:58.553Z,51.51
2019-02-28T12:51:05.094Z,51.49
2019-02-28T12:52:07.571Z,51.30
2019-02-28T12:53:11.298Z,51.26
2019-02-28T12:54:14.826Z,51.16
2019-02-28T12:55:20.001Z,51.02
2019-02-28T12:56:23.596Z,51.07
2019-02-28T12:57:27.171Z,51.14
2019-02-28T12:58:38.891Z,51.27
2019-02-28T12:59:35.979Z,51.31
2019-02-28T13:00:44.734Z,51.38
2019-02-28T13:01:48.468Z,51.45
2019-02-28T13:02:52.045Z,51.50
2019-02-28T13:04:00.212Z,51.42
2019-02-28T13:05:00.763Z,51.42
2019-02-28T13:06:04.347Z,51.66
2019-02-28T13:07:07.894Z,51.73
2019-02-28T13:08:11.414Z,51.75
2019-02-28T13:09:16.856Z,51.79
2019-02-28T13:10:26.860Z,51.84
2019-02-28T13:11:27.561Z,51.91
2019-02-28T13:12:31.224Z,51.99
2019-02-28T13:13:34.795Z,52.07
2019-02-28T13:14:40.759Z,52.14
2019-02-28T13:15:45.467Z,52.25
2019-02-28T13:16:48.974Z,52.31
2019-02-28T13:17:52.571Z,52.44
2019-02-28T13:18:56.515Z,52.52
2019-02-28T13:20:00.018Z,52.57
2019-02-28T13:21:06.201Z,52.58
2019-02-28T13:22:09.356Z,52.63
2019-02-28T13:23:13.042Z,52.70
2019-02-28T13:24:16.546Z,52.77
2019-02-28T13:25:23.354Z,52.90
2019-02-28T13:26:25.742Z,53.02
2019-02-28T13:27:29.377Z,53.07
2019-02-28T13:28:32.974Z,53.14
2019-02-28T13:29:37.111Z,53.18
2019-02-28T13:30:45.082Z,53.21
2019-02-28T13:31:45.897Z,53.25
2019-02-28T13:32:49.637Z,53.30
2019-02-28T13:33:53.695Z,53.31
2019-02-28T13:34:57.366Z,53.34
2019-02-28T13:36:01.010Z,53.37
2019-02-28T13:37:04.752Z,53.39
2019-02-28T13:38:08.332Z,53.40
2019-02-28T13:39:12.050Z,53.44
2019-02-28T13:40:16.427Z,53.45
2019-02-28T13:41:22.330Z,53.49
2019-02-28T13:42:25.316Z,53.49
2019-02-28T13:43:28.816Z,53.51
2019-02-28T13:44:36.340Z,53.51
2019-02-28T13:45:39.110Z,53.51
2019-02-28T13:46:44.075Z,53.53
2019-02-28T13:47:48.255Z,53.51
2019-02-28T13:48:52.513Z,53.53
2019-02-28T13:49:56.040Z,53.54
2019-02-28T13:51:02.475Z,53.56
2019-02-28T13:52:06.176Z,53.57
2019-02-28T13:53:18.355Z,53.58